< < Back
Terminal Aerodrome Forecast


Current Version              Previous Versions:   1  2  3  4  5  6  7  8  9  

Terminal Aerodrome Forecast

923
FTUS44 KBMX 210500
TAFTCL
TAF
KTCL 210533Z 2106/2206 00000KT P6SM SKC
      TEMPO 2110/2113 4SM BR
     FM211500 25005KT P6SM SCT045
     FM220100 00000KT P6SM SKC=

Latest METAR

285
SAUS70 KWBC 212200 RRQ
MTRTCL
METAR KTCL 212153Z 28003KT 7SM CLR 36/20 A3005 RMK AO2 SLP172
T03560200


USA.gov is the U.S. government's official web portal to all federal, state and local government web resources and services.